Enter the Airport ICAO Code

Search by Airport or City

Current Weather

SBRF | Recife/Guararapes–Gilberto Freyre International Airport

Recife, Pernambuco, Brazil

Last Update 16 Minutes Ago

Sky with Few Clouds

Temperature of 23 ºC

Light Winds from NorthWest

Temperature

23 ºC

Dew Point Temperature

21 ºC

Relative Humidity

88.58 %

Wind Direction

NorthWest (320º, Without Significant Variations)

Wind Velocity

4 km/h (02 kt)

Gusts

None

Visibility

Greater than 10 Kilometers

Sea Level Pressure

1016 hPa (Hectopascals)

Layers of Clouds

5% to 30% of Sky Covered from 701 mts (2300 ft) Above Ground Level.

METAR SBRF 131000Z 32002KT 9999 FEW023 23/21 Q1016

Weather Forecast

SBRF | Recife/Guararapes–Gilberto Freyre International Airport

Recife, Pernambuco, Brazil

Forecast valid for the next 26 Hours

In 2 hours it is expected the begining of:

Partly Cloudy Sky

Moderate Winds from SouthEast

In 12 to 14 hours it is expected the begining of:

Light to Moderate Winds from South

Maximum Temperature

29 ºC in 5 Hours

Minimum Temperature

24 ºC in 20 Hours

TAF SBRF 130900Z 1312/1412 13010KT 9999 SCT025 TX29/1315Z TN24/1406Z BECMG 1322/1324 18005KT RMK PEH